Time;durP1;ratioP1;P1;durP2;ratioP2;P2;SDS_P1;SDS_P2;PMS_P1;PMS_P2;Temp;Humidity;BMP_temperature;BMP_pressure;BME280_temperature;BME280_humidity;BME280_pressure;Samples;Min_cycle;Max_cycle;Signal;HPM_P1;HPM_P2
2021/10/18 00:01:21;;;;;;;10.93;5.85;;;12.50;91.30;;;;;;4994635;28;20034;-74
2021/10/18 00:03:46;;;;;;;9.40;5.25;;;12.50;91.30;;;;;;4995298;28;20054;-75
2021/10/18 00:06:12;;;;;;;9.63;5.45;;;12.50;91.30;;;;;;4994616;28;20236;-75
2021/10/18 00:08:38;;;;;;;13.32;5.70;;;12.50;91.40;;;;;;4993165;28;20026;-75
2021/10/18 00:11:04;;;;;;;8.90;5.60;;;12.40;91.40;;;;;;4994452;28;20061;-75
2021/10/18 00:13:30;;;;;;;9.25;5.20;;;12.40;91.50;;;;;;4995028;28;20034;-75
2021/10/18 00:15:56;;;;;;;9.65;5.20;;;12.40;91.50;;;;;;4993755;28;20422;-75
2021/10/18 00:18:22;;;;;;;11.38;5.10;;;12.40;91.50;;;;;;4994672;28;20041;-75
2021/10/18 00:20:48;;;;;;;8.30;4.88;;;12.40;91.50;;;;;;4994982;28;20030;-75
2021/10/18 00:23:14;;;;;;;10.27;5.38;;;12.40;91.50;;;;;;5009399;28;20024;-75
2021/10/18 00:25:39;;;;;;;9.15;5.10;;;12.40;91.50;;;;;;4994987;28;20390;-75
2021/10/18 00:28:05;;;;;;;8.75;5.43;;;12.40;91.50;;;;;;4993761;28;20030;-75
2021/10/18 00:30:31;;;;;;;8.52;4.95;;;12.40;91.50;;;;;;5014142;28;20060;-75
2021/10/18 00:32:57;;;;;;;9.27;5.65;;;12.40;91.50;;;;;;5012667;28;20073;-75
2021/10/18 00:35:23;;;;;;;8.18;5.18;;;12.40;91.50;;;;;;5028874;28;20034;-75
2021/10/18 00:37:49;;;;;;;8.45;5.05;;;12.40;91.50;;;;;;5008265;28;20109;-75
2021/10/18 00:40:14;;;;;;;13.07;5.78;;;12.50;91.50;;;;;;4993960;28;20366;-75
2021/10/18 00:42:41;;;;;;;9.73;4.90;;;12.40;91.50;;;;;;4992920;28;20446;-75
2021/10/18 00:45:07;;;;;;;10.55;5.35;;;12.50;91.50;;;;;;4993675;28;20042;-75
2021/10/18 00:47:34;;;;;;;9.25;5.65;;;12.50;91.50;;;;;;4994368;28;20112;-75
2021/10/18 00:49:59;;;;;;;10.57;5.82;;;12.50;91.50;;;;;;4994382;28;20022;-75
2021/10/18 00:52:26;;;;;;;8.90;5.15;;;12.50;91.60;;;;;;4993933;28;20513;-75
2021/10/18 00:54:53;;;;;;;10.48;5.22;;;12.50;91.60;;;;;;4994224;28;20039;-75
2021/10/18 00:57:19;;;;;;;10.07;5.97;;;12.40;91.60;;;;;;4993386;28;20097;-75
2021/10/18 00:59:46;;;;;;;8.85;4.85;;;12.40;91.70;;;;;;4994221;28;20015;-75
2021/10/18 01:02:12;;;;;;;10.57;5.75;;;12.40;91.70;;;;;;5008615;28;20023;-75
2021/10/18 01:04:39;;;;;;;12.13;6.18;;;12.30;91.70;;;;;;4993831;28;20077;-75
2021/10/18 01:07:05;;;;;;;10.27;5.72;;;12.30;91.80;;;;;;4993813;28;20022;-74
2021/10/18 01:09:31;;;;;;;11.65;5.45;;;12.30;91.90;;;;;;4993382;28;20037;-74
2021/10/18 01:11:57;;;;;;;8.45;5.38;;;12.20;91.90;;;;;;4992688;28;20022;-75
2021/10/18 01:14:22;;;;;;;8.40;4.75;;;12.20;92.00;;;;;;4992025;28;20038;-75
2021/10/18 01:16:48;;;;;;;11.82;5.43;;;12.10;92.00;;;;;;4992497;28;20455;-74
2021/10/18 01:19:16;;;;;;;10.57;5.65;;;12.10;92.10;;;;;;4993243;28;20018;-75
2021/10/18 01:21:43;;;;;;;9.27;5.57;;;12.10;92.10;;;;;;4992924;28;20019;-77
2021/10/18 01:24:09;;;;;;;8.90;5.07;;;12.10;92.10;;;;;;4993545;28;20471;-77
2021/10/18 01:26:35;;;;;;;12.85;6.25;;;12.00;92.10;;;;;;4993662;28;20065;-74
2021/10/18 01:29:01;;;;;;;9.13;6.00;;;12.00;92.20;;;;;;4993673;28;20026;-75
2021/10/18 01:31:27;;;;;;;11.52;5.93;;;12.00;92.10;;;;;;5008067;28;20037;-75
2021/10/18 01:33:52;;;;;;;10.65;4.90;;;12.00;92.20;;;;;;4993631;28;20058;-74
2021/10/18 01:36:19;;;;;;;8.82;5.40;;;12.00;92.20;;;;;;4993356;28;20034;-74
2021/10/18 01:38:46;;;;;;;9.18;5.50;;;12.00;92.20;;;;;;4993448;28;20050;-74
2021/10/18 01:41:12;;;;;;;10.68;5.53;;;12.00;92.20;;;;;;4992872;28;20027;-74
2021/10/18 01:43:37;;;;;;;9.18;5.63;;;12.00;92.20;;;;;;5008502;28;20023;-74
2021/10/18 01:46:03;;;;;;;11.57;5.28;;;12.00;92.20;;;;;;4993617;28;20077;-74
2021/10/18 01:48:31;;;;;;;10.25;5.50;;;12.00;92.30;;;;;;4991411;28;20072;-74
2021/10/18 01:50:57;;;;;;;10.90;5.57;;;12.00;92.30;;;;;;4993035;28;20054;-74
2021/10/18 01:53:23;;;;;;;11.90;6.05;;;12.00;92.30;;;;;;4991449;28;20077;-75
2021/10/18 01:55:48;;;;;;;10.48;5.72;;;12.00;92.30;;;;;;4991825;28;20027;-75
2021/10/18 01:58:14;;;;;;;11.27;5.57;;;12.00;92.30;;;;;;4992723;28;20041;-74
2021/10/18 02:00:41;;;;;;;9.32;5.53;;;12.00;92.30;;;;;;4991783;28;20031;-74
2021/10/18 02:03:06;;;;;;;9.90;5.50;;;12.00;92.30;;;;;;4993097;28;20030;-75
2021/10/18 02:05:32;;;;;;;8.32;5.07;;;12.00;92.30;;;;;;4992304;28;20034;-75
2021/10/18 02:07:58;;;;;;;9.32;6.15;;;12.00;92.50;;;;;;4992898;28;20022;-75
2021/10/18 02:10:24;;;;;;;8.95;5.32;;;12.00;92.40;;;;;;4992097;28;20101;-75
2021/10/18 02:12:51;;;;;;;10.15;6.13;;;12.00;92.30;;;;;;4992797;28;20041;-75
2021/10/18 02:15:17;;;;;;;10.75;5.60;;;12.00;92.30;;;;;;5007410;28;20034;-74
2021/10/18 02:17:43;;;;;;;8.73;5.57;;;12.00;92.30;;;;;;4992583;28;20057;-75
2021/10/18 02:20:11;;;;;;;10.93;6.50;;;12.00;92.30;;;;;;4992827;28;20360;-74
2021/10/18 02:22:37;;;;;;;13.15;6.80;;;12.10;92.30;;;;;;4992262;28;20022;-74
2021/10/18 02:25:04;;;;;;;10.13;6.10;;;12.10;92.30;;;;;;5007830;28;20122;-75
2021/10/18 02:27:30;;;;;;;10.32;6.55;;;12.10;92.30;;;;;;5007145;28;20073;-74
2021/10/18 02:29:55;;;;;;;11.40;5.32;;;12.10;92.30;;;;;;5007787;28;20022;-75
2021/10/18 02:32:21;;;;;;;8.95;5.25;;;12.10;92.40;;;;;;4991871;28;20460;-75
2021/10/18 02:34:47;;;;;;;12.45;5.95;;;12.10;92.40;;;;;;4991182;28;20133;-75
2021/10/18 02:37:12;;;;;;;9.70;6.38;;;12.00;92.40;;;;;;4992604;28;20022;-75
2021/10/18 02:39:38;;;;;;;13.30;6.15;;;12.10;92.50;;;;;;4991767;28;20098;-75
2021/10/18 02:42:04;;;;;;;10.20;5.95;;;12.00;92.50;;;;;;4992586;28;20026;-74
2021/10/18 02:44:30;;;;;;;10.82;6.28;;;12.00;92.60;;;;;;5007049;28;20406;-75
2021/10/18 02:46:55;;;;;;;10.10;6.38;;;12.00;92.70;;;;;;4992210;28;20392;-75
2021/10/18 02:49:21;;;;;;;13.68;6.63;;;12.00;92.60;;;;;;4991916;28;20439;-74
2021/10/18 02:51:48;;;;;;;12.00;6.40;;;12.00;92.60;;;;;;4992579;28;20027;-74
2021/10/18 02:54:14;;;;;;;13.75;6.55;;;11.90;92.60;;;;;;4992474;28;20549;-74
2021/10/18 02:56:40;;;;;;;11.68;6.15;;;11.90;92.60;;;;;;4991799;28;20493;-74
2021/10/18 02:59:06;;;;;;;9.32;5.53;;;11.90;92.60;;;;;;4992397;28;20077;-74
2021/10/18 03:01:32;;;;;;;10.15;5.95;;;11.90;92.70;;;;;;4991527;28;20077;-75
2021/10/18 03:03:58;;;;;;;12.48;5.68;;;11.90;92.70;;;;;;4992119;28;20030;-74
2021/10/18 03:06:24;;;;;;;10.43;6.25;;;11.80;92.70;;;;;;4991817;28;20030;-75
2021/10/18 03:08:49;;;;;;;12.10;6.35;;;11.80;92.70;;;;;;4992665;28;20032;-74
2021/10/18 03:11:15;;;;;;;10.18;6.45;;;11.80;92.70;;;;;;4992500;28;20030;-75
2021/10/18 03:13:41;;;;;;;12.48;6.68;;;11.80;92.80;;;;;;5006701;28;20439;-74
2021/10/18 03:16:07;;;;;;;14.27;6.10;;;11.80;92.80;;;;;;4992343;28;20467;-75
2021/10/18 03:18:33;;;;;;;13.68;6.88;;;11.80;92.80;;;;;;5006659;28;20069;-75
2021/10/18 03:20:58;;;;;;;12.13;6.80;;;11.80;92.80;;;;;;4992161;28;20026;-74
2021/10/18 03:23:24;;;;;;;10.68;6.18;;;11.70;92.80;;;;;;4991554;28;20379;-74
2021/10/18 03:25:50;;;;;;;12.18;6.55;;;11.70;92.80;;;;;;4992187;28;20031;-74
2021/10/18 03:28:15;;;;;;;13.63;6.18;;;11.70;92.80;;;;;;5007287;28;20138;-74
2021/10/18 03:30:41;;;;;;;11.75;6.55;;;11.70;93.10;;;;;;4991570;28;20018;-75
2021/10/18 03:33:07;;;;;;;10.10;7.07;;;11.70;92.80;;;;;;4991933;28;20050;-75
2021/10/18 03:35:32;;;;;;;12.57;6.88;;;11.70;92.80;;;;;;4991531;28;20125;-75
2021/10/18 03:37:58;;;;;;;11.13;6.60;;;11.70;92.90;;;;;;4990844;28;20045;-75
2021/10/18 03:40:24;;;;;;;9.30;6.35;;;11.60;92.90;;;;;;5006470;28;20033;-75
2021/10/18 03:42:50;;;;;;;11.07;6.47;;;11.60;92.90;;;;;;5007206;28;20030;-75
2021/10/18 03:45:15;;;;;;;11.18;5.97;;;11.60;92.90;;;;;;4995356;28;20390;-74
2021/10/18 03:47:41;;;;;;;13.25;6.75;;;11.60;92.90;;;;;;5002581;28;20056;-76
2021/10/18 03:50:08;;;;;;;10.60;6.22;;;11.50;93.00;;;;;;5006097;28;20022;-76
2021/10/18 03:52:34;;;;;;;11.75;7.07;;;11.50;93.00;;;;;;5001769;28;20033;-77
2021/10/18 03:55:00;;;;;;;15.85;6.82;;;11.50;93.00;;;;;;4999767;28;20052;-75
2021/10/18 03:57:26;;;;;;;10.80;6.20;;;11.50;93.10;;;;;;4999803;28;20030;-76
2021/10/18 03:59:51;;;;;;;16.83;6.47;;;11.40;93.10;;;;;;5020363;28;20026;-76
2021/10/18 04:02:17;;;;;;;10.07;5.93;;;11.40;93.10;;;;;;5000280;28;20496;-76
2021/10/18 04:04:43;;;;;;;12.43;6.20;;;11.40;93.10;;;;;;4999810;28;20129;-76
2021/10/18 04:07:09;;;;;;;12.98;6.25;;;11.30;93.20;;;;;;5005071;28;20036;-76
2021/10/18 04:09:34;;;;;;;10.10;6.13;;;11.30;93.20;;;;;;5004932;28;20037;-77
2021/10/18 04:12:00;;;;;;;10.32;6.05;;;11.20;93.30;;;;;;5010450;28;20041;-77
2021/10/18 04:14:26;;;;;;;10.40;5.90;;;11.20;93.30;;;;;;5008314;28;20022;-77
2021/10/18 04:16:52;;;;;;;11.10;6.20;;;11.20;93.40;;;;;;5012376;28;20022;-77
2021/10/18 04:19:18;;;;;;;10.82;6.50;;;11.10;93.40;;;;;;5005741;28;20038;-76
2021/10/18 04:21:44;;;;;;;9.85;6.05;;;11.10;93.40;;;;;;5004409;28;20455;-76
2021/10/18 04:24:09;;;;;;;13.48;7.53;;;11.10;93.40;;;;;;5007855;28;20375;-76
2021/10/18 04:26:35;;;;;;;12.70;7.38;;;11.10;93.40;;;;;;5005244;28;20032;-77
2021/10/18 04:29:01;;;;;;;11.82;7.00;;;11.00;93.40;;;;;;4999347;28;20034;-77
2021/10/18 04:31:28;;;;;;;10.88;7.00;;;11.00;93.40;;;;;;5000653;28;20048;-76
2021/10/18 04:33:56;;;;;;;12.15;6.60;;;11.00;93.40;;;;;;5007354;28;20046;-77
2021/10/18 04:36:23;;;;;;;14.40;6.85;;;10.90;93.40;;;;;;5009426;28;20372;-76
2021/10/18 04:38:49;;;;;;;13.07;7.35;;;10.90;93.50;;;;;;4992359;28;20463;-76
2021/10/18 04:41:14;;;;;;;11.70;6.45;;;10.90;93.50;;;;;;5018669;28;20030;-78
2021/10/18 04:43:40;;;;;;;9.88;6.25;;;10.80;93.50;;;;;;5012920;28;20049;-77
2021/10/18 04:46:06;;;;;;;12.35;6.00;;;10.80;93.50;;;;;;5009049;28;20061;-76
2021/10/18 04:48:31;;;;;;;10.77;6.28;;;10.80;93.50;;;;;;5010868;28;20022;-77
2021/10/18 04:50:57;;;;;;;10.95;6.35;;;10.80;93.60;;;;;;5011522;28;20018;-79
2021/10/18 04:53:23;;;;;;;10.77;6.03;;;10.70;93.60;;;;;;5007354;28;20229;-77
2021/10/18 04:55:48;;;;;;;9.55;5.70;;;10.70;93.60;;;;;;4989376;28;20502;-77
2021/10/18 04:58:14;;;;;;;13.52;6.55;;;10.70;93.60;;;;;;5006311;28;20089;-77
2021/10/18 05:00:45;;;;;;;10.93;6.00;;;10.70;93.60;;;;;;4990708;28;20028;-77
2021/10/18 05:03:11;;;;;;;12.02;6.05;;;10.60;93.70;;;;;;4992019;28;20070;-77
2021/10/18 05:05:39;;;;;;;10.25;6.18;;;10.60;93.60;;;;;;4989613;28;20157;-78
2021/10/18 05:08:10;;;;;;;10.60;6.20;;;10.60;93.60;;;;;;4990415;28;20027;-78
2021/10/18 05:10:37;;;;;;;10.05;5.93;;;10.60;93.70;;;;;;4990032;28;20053;-78
2021/10/18 05:13:05;;;;;;;10.75;5.43;;;10.60;93.60;;;;;;5012880;28;20100;-76
2021/10/18 05:15:31;;;;;;;11.90;5.63;;;10.60;93.70;;;;;;5005420;28;20038;-77
2021/10/18 05:17:57;;;;;;;10.68;5.93;;;10.50;93.70;;;;;;4997984;28;20046;-77
2021/10/18 05:20:23;;;;;;;9.07;5.68;;;10.50;93.70;;;;;;5002393;28;20088;-77
2021/10/18 05:22:49;;;;;;;12.27;6.30;;;10.50;93.70;;;;;;4997497;28;20483;-77
2021/10/18 05:25:15;;;;;;;13.35;6.53;;;10.40;94.00;;;;;;5000009;28;20041;-76
2021/10/18 05:27:41;;;;;;;10.02;6.45;;;10.40;93.80;;;;;;4995171;28;20026;-75
2021/10/18 05:30:09;;;;;;;10.60;6.85;;;10.40;93.80;;;;;;4993409;28;20084;-75
2021/10/18 05:32:35;;;;;;;11.35;5.72;;;10.40;93.70;;;;;;4992604;28;20027;-75
2021/10/18 05:35:00;;;;;;;12.10;6.72;;;10.40;93.70;;;;;;4993602;28;20042;-74
2021/10/18 05:37:26;;;;;;;10.77;6.15;;;10.40;93.80;;;;;;4991796;28;20026;-75
2021/10/18 05:39:52;;;;;;;11.60;6.60;;;10.50;93.80;;;;;;5008031;28;20022;-75
2021/10/18 05:42:18;;;;;;;11.13;6.03;;;10.40;93.70;;;;;;4991953;28;20060;-75
2021/10/18 05:44:44;;;;;;;9.00;5.75;;;10.50;93.70;;;;;;4991429;28;20510;-76
2021/10/18 05:47:10;;;;;;;12.18;6.40;;;10.50;93.90;;;;;;4992006;28;20482;-75
2021/10/18 05:49:37;;;;;;;12.13;7.18;;;10.50;93.60;;;;;;4991376;28;20470;-74
2021/10/18 05:52:03;;;;;;;12.07;6.18;;;10.60;93.70;;;;;;4993262;28;20033;-75
2021/10/18 05:54:29;;;;;;;12.75;6.88;;;10.60;93.60;;;;;;4993028;28;20073;-75
2021/10/18 05:56:55;;;;;;;11.90;6.25;;;10.60;93.60;;;;;;4993200;28;20023;-75
2021/10/18 05:59:20;;;;;;;9.93;6.03;;;10.60;93.70;;;;;;4993128;28;20030;-76
2021/10/18 06:01:46;;;;;;;10.48;6.80;;;10.60;93.70;;;;;;4992427;28;20081;-75
2021/10/18 06:04:12;;;;;;;11.52;6.78;;;10.60;94.00;;;;;;4992793;28;20455;-76
2021/10/18 06:06:38;;;;;;;11.35;6.93;;;10.60;93.90;;;;;;4991839;28;20113;-75
2021/10/18 06:09:04;;;;;;;11.88;6.57;;;10.60;93.70;;;;;;4992730;28;20029;-75
2021/10/18 06:11:30;;;;;;;11.88;7.57;;;10.60;93.80;;;;;;4992675;28;20029;-75
2021/10/18 06:13:56;;;;;;;11.55;7.07;;;10.60;93.80;;;;;;4991693;28;20033;-76
2021/10/18 06:16:22;;;;;;;10.88;7.07;;;10.60;93.80;;;;;;4993205;28;20030;-76
2021/10/18 06:18:47;;;;;;;12.82;7.47;;;10.60;93.80;;;;;;4990910;28;20058;-76
2021/10/18 06:21:13;;;;;;;11.65;6.88;;;10.70;93.80;;;;;;4992746;28;20050;-76
2021/10/18 06:23:39;;;;;;;13.48;6.75;;;10.60;93.80;;;;;;4992061;28;20065;-76
2021/10/18 06:26:04;;;;;;;14.27;8.07;;;10.70;93.80;;;;;;4992881;28;20425;-77
2021/10/18 06:28:30;;;;;;;11.45;6.45;;;10.70;93.80;;;;;;4992765;28;20026;-76
2021/10/18 06:30:56;;;;;;;15.27;7.47;;;10.70;93.80;;;;;;4990689;28;20022;-76
2021/10/18 06:33:25;;;;;;;12.07;6.50;;;10.70;93.80;;;;;;4992176;28;20046;-76
2021/10/18 06:35:51;;;;;;;13.13;7.05;;;10.70;93.80;;;;;;4992077;28;20038;-76
2021/10/18 06:38:20;;;;;;;13.63;7.82;;;10.70;93.80;;;;;;4992637;28;20033;-76
2021/10/18 06:40:48;;;;;;;11.50;6.82;;;10.70;93.90;;;;;;4991963;28;20046;-75
2021/10/18 06:43:14;;;;;;;11.88;7.35;;;10.70;93.90;;;;;;4992562;28;20034;-75
2021/10/18 06:45:40;;;;;;;14.45;7.30;;;10.70;93.90;;;;;;4991886;28;20023;-74
2021/10/18 06:48:10;;;;;;;12.13;7.97;;;10.80;93.90;;;;;;4992888;28;20038;-75
2021/10/18 06:50:37;;;;;;;15.68;8.05;;;10.80;93.90;;;;;;5006718;28;20015;-75
2021/10/18 06:53:03;;;;;;;14.63;8.02;;;10.80;93.90;;;;;;4992623;28;20061;-75
2021/10/18 06:55:29;;;;;;;15.20;7.80;;;10.80;93.90;;;;;;4992488;28;20030;-75
2021/10/18 06:57:58;;;;;;;13.93;7.97;;;10.80;93.90;;;;;;5006817;28;20380;-75
2021/10/18 07:00:24;;;;;;;13.30;6.78;;;10.80;93.90;;;;;;4992289;28;20113;-75
2021/10/18 07:02:49;;;;;;;14.35;6.70;;;10.80;93.90;;;;;;4991904;28;20447;-75
2021/10/18 07:05:15;;;;;;;13.63;7.80;;;10.80;93.90;;;;;;4992322;28;20042;-75
2021/10/18 07:07:41;;;;;;;14.45;7.82;;;10.80;93.90;;;;;;4991767;28;20023;-75
2021/10/18 07:10:07;;;;;;;15.38;7.63;;;10.90;93.90;;;;;;4990968;28;20061;-75
2021/10/18 07:12:35;;;;;;;11.55;8.10;;;10.90;93.90;;;;;;4992257;28;20026;-75
2021/10/18 07:15:02;;;;;;;14.02;7.22;;;10.90;93.90;;;;;;4992171;28;20030;-75
2021/10/18 07:17:28;;;;;;;16.35;8.32;;;10.90;93.80;;;;;;4992383;28;20478;-75
2021/10/18 07:19:55;;;;;;;13.20;7.80;;;11.00;93.90;;;;;;4994342;28;20109;-76
2021/10/18 07:22:29;;;;;;;14.40;7.57;;;11.00;93.80;;;;;;4995766;28;20395;-75
2021/10/18 07:24:55;;;;;;;13.23;7.40;;;11.00;93.80;;;;;;4995267;28;20298;-75
2021/10/18 07:27:25;;;;;;;11.07;6.55;;;11.00;93.80;;;;;;4995822;28;20125;-75
2021/10/18 07:29:51;;;;;;;12.55;6.75;;;11.00;93.80;;;;;;4995227;28;20117;-75
2021/10/18 07:32:17;;;;;;;11.85;7.32;;;11.00;93.80;;;;;;4995802;28;20145;-75
2021/10/18 07:34:43;;;;;;;13.23;7.47;;;11.00;93.80;;;;;;4993166;28;20074;-75
2021/10/18 07:37:10;;;;;;;12.48;7.15;;;11.10;93.80;;;;;;4995779;28;20181;-75
2021/10/18 07:39:36;;;;;;;12.30;7.28;;;11.10;93.80;;;;;;4994471;28;20382;-76
2021/10/18 07:42:04;;;;;;;14.23;7.72;;;11.10;93.80;;;;;;4995730;28;20466;-74
2021/10/18 07:44:30;;;;;;;14.82;8.30;;;11.10;93.80;;;;;;4995597;28;20026;-74
2021/10/18 07:46:59;;;;;;;15.20;7.55;;;11.10;93.80;;;;;;4994720;28;20541;-74
2021/10/18 07:49:29;;;;;;;12.68;6.32;;;11.20;93.80;;;;;;4994287;28;20026;-74
2021/10/18 07:51:58;;;;;;;14.02;7.50;;;11.20;93.80;;;;;;4994980;28;20018;-74
2021/10/18 07:54:26;;;;;;;14.63;7.25;;;11.30;93.70;;;;;;4993984;28;20428;-75
2021/10/18 07:56:52;;;;;;;13.55;7.05;;;11.30;93.50;;;;;;5009817;28;20398;-74
2021/10/18 07:59:18;;;;;;;11.45;6.07;;;11.40;93.70;;;;;;4995004;28;20557;-75
2021/10/18 08:01:43;;;;;;;10.48;5.50;;;11.40;93.60;;;;;;4994990;28;20521;-75
2021/10/18 08:04:09;;;;;;;13.70;6.53;;;11.40;93.50;;;;;;4995076;28;20062;-75
2021/10/18 08:06:35;;;;;;;13.80;7.55;;;11.40;93.50;;;;;;4995193;28;20031;-75
2021/10/18 08:09:01;;;;;;;14.15;6.95;;;11.50;93.50;;;;;;4994914;28;20130;-75
2021/10/18 08:11:27;;;;;;;15.57;7.57;;;11.50;93.40;;;;;;4995180;28;20026;-75
2021/10/18 08:13:52;;;;;;;11.45;6.28;;;11.60;93.40;;;;;;4994435;28;20379;-75
2021/10/18 08:16:18;;;;;;;14.65;7.25;;;11.60;93.40;;;;;;4995052;28;20030;-75
2021/10/18 08:18:44;;;;;;;10.93;6.22;;;11.60;93.30;;;;;;4994678;28;20041;-75
2021/10/18 08:21:11;;;;;;;14.75;7.07;;;11.60;93.30;;;;;;4995000;28;20026;-75
2021/10/18 08:23:37;;;;;;;11.40;6.47;;;11.70;93.30;;;;;;4995005;28;20015;-75
2021/10/18 08:26:05;;;;;;;11.88;6.15;;;11.70;93.30;;;;;;5009300;28;20031;-75
2021/10/18 08:28:31;;;;;;;12.43;6.72;;;11.70;93.30;;;;;;4994927;28;20069;-75
2021/10/18 08:30:57;;;;;;;11.90;7.53;;;11.70;93.30;;;;;;5008615;28;20116;-75
2021/10/18 08:33:24;;;;;;;11.18;6.35;;;11.80;93.30;;;;;;4993646;28;20418;-75
2021/10/18 08:35:50;;;;;;;12.52;6.72;;;11.80;93.30;;;;;;4993626;28;20042;-75
2021/10/18 08:38:32;;;;;;;11.82;6.40;;;11.80;93.30;;;;;;4994624;28;20105;-75
2021/10/18 08:41:04;;;;;;;10.25;5.32;;;11.90;93.30;;;;;;4994129;28;20471;-76
2021/10/18 08:45:55;;;;;;;11.68;5.97;;;11.90;93.20;;;;;;4993858;28;20042;-76
2021/10/18 08:48:21;;;;;;;11.45;6.18;;;12.00;93.20;;;;;;4994312;28;20061;-76
2021/10/18 08:50:50;;;;;;;15.68;6.43;;;12.00;93.20;;;;;;4993912;28;20033;-75
2021/10/18 08:53:15;;;;;;;8.55;5.55;;;12.10;93.20;;;;;;4994671;28;20018;-75
2021/10/18 08:55:41;;;;;;;10.88;5.28;;;12.10;93.10;;;;;;4994347;28;20069;-76
2021/10/18 08:58:08;;;;;;;10.57;6.25;;;12.20;93.10;;;;;;4993959;28;20435;-75
2021/10/18 09:00:53;;;;;;;11.10;5.60;;;12.20;93.00;;;;;;4994172;28;20023;-75
2021/10/18 09:03:25;;;;;;;10.77;6.05;;;12.30;92.90;;;;;;4994469;28;20034;-75
2021/10/18 09:06:08;;;;;;;11.57;5.95;;;12.30;92.90;;;;;;4993564;28;20058;-75
2021/10/18 09:08:39;;;;;;;11.02;6.07;;;12.40;92.80;;;;;;4993659;28;20411;-75
2021/10/18 09:11:10;;;;;;;11.43;6.85;;;12.40;92.80;;;;;;4993328;28;20467;-74
2021/10/18 09:13:41;;;;;;;10.63;6.03;;;12.50;92.70;;;;;;4992636;28;20041;-75
2021/10/18 09:16:09;;;;;;;11.13;6.13;;;12.50;92.70;;;;;;4992059;28;20395;-76
2021/10/18 09:18:34;;;;;;;10.82;6.07;;;12.60;92.60;;;;;;4992731;28;20471;-76
2021/10/18 09:21:00;;;;;;;10.02;5.53;;;12.60;92.50;;;;;;4991840;28;20029;-76
2021/10/18 09:23:31;;;;;;;13.05;5.75;;;12.70;92.50;;;;;;4992494;28;20023;-76
2021/10/18 09:26:00;;;;;;;8.13;5.18;;;12.80;92.40;;;;;;4993248;28;20471;-76
2021/10/18 09:28:27;;;;;;;11.65;6.30;;;12.90;92.40;;;;;;4993870;28;20030;-76
2021/10/18 09:30:53;;;;;;;10.73;6.15;;;12.90;92.40;;;;;;4993053;28;20037;-75
2021/10/18 09:33:41;;;;;;;8.60;5.10;;;12.90;92.30;;;;;;4993815;28;20026;-76
2021/10/18 09:36:12;;;;;;;11.48;6.53;;;13.00;92.40;;;;;;5007549;28;20097;-75
2021/10/18 09:38:39;;;;;;;10.57;6.13;;;13.00;92.30;;;;;;4992427;28;20042;-75
2021/10/18 09:41:05;;;;;;;12.40;6.65;;;13.00;92.30;;;;;;4992383;28;20433;-74
2021/10/18 09:46:18;;;;;;;11.27;6.07;;;13.20;92.20;;;;;;4992746;28;20034;-75
2021/10/18 10:52:02;;;;;;;10.85;6.50;;;14.30;90.80;;;;;;4991816;28;20097;-76
2021/10/18 10:54:39;;;;;;;10.48;5.55;;;14.40;90.80;;;;;;4997596;28;20125;-76
2021/10/18 10:57:10;;;;;;;11.15;6.60;;;14.40;90.80;;;;;;4995925;28;20030;-76
2021/10/18 10:59:36;;;;;;;11.60;6.28;;;14.50;90.90;;;;;;4996529;28;20064;-75
2021/10/18 11:02:05;;;;;;;12.25;6.55;;;14.50;90.90;;;;;;5010779;28;20018;-75
2021/10/18 11:04:31;;;;;;;11.82;6.43;;;14.60;90.90;;;;;;4996301;28;20054;-75
2021/10/18 11:06:59;;;;;;;12.18;6.38;;;14.80;90.80;;;;;;4995603;28;20069;-75
2021/10/18 11:09:41;;;;;;;9.02;5.57;;;15.00;90.70;;;;;;4996160;28;20022;-75
2021/10/18 11:12:29;;;;;;;13.45;6.95;;;15.20;90.60;;;;;;4995707;28;20537;-77
2021/10/18 11:15:11;;;;;;;11.25;5.90;;;15.40;90.40;;;;;;4994889;28;20133;-74
2021/10/18 11:17:55;;;;;;;11.07;6.45;;;15.50;90.20;;;;;;4995968;28;20080;-75
2021/10/18 11:20:23;;;;;;;11.25;6.97;;;15.50;90.00;;;;;;4995960;28;20018;-74
2021/10/18 11:22:59;;;;;;;12.98;6.95;;;15.60;90.00;;;;;;4995027;28;20033;-78
2021/10/18 11:25:28;;;;;;;10.68;6.25;;;15.60;89.80;;;;;;5011072;28;20488;-75
2021/10/18 11:27:57;;;;;;;10.80;6.18;;;15.60;89.60;;;;;;5010474;28;20176;-74
2021/10/18 11:30:25;;;;;;;11.60;6.72;;;15.70;89.50;;;;;;4995920;28;20026;-75
2021/10/18 11:33:00;;;;;;;12.63;6.97;;;15.80;89.50;;;;;;4995934;28;20030;-75
2021/10/18 11:35:27;;;;;;;12.00;6.63;;;15.80;89.30;;;;;;4995398;28;20051;-76
2021/10/18 11:37:57;;;;;;;13.63;7.22;;;15.80;89.00;;;;;;4995760;28;20053;-74
2021/10/18 11:40:32;;;;;;;11.82;5.90;;;15.90;88.90;;;;;;4995769;28;20110;-75
2021/10/18 11:43:09;;;;;;;11.02;6.68;;;15.90;88.60;;;;;;4995017;28;20030;-75
2021/10/18 11:45:37;;;;;;;12.27;6.40;;;16.00;88.50;;;;;;4995683;28;20056;-75
2021/10/18 11:48:12;;;;;;;9.98;5.90;;;16.00;88.10;;;;;;4993699;28;20399;-75
2021/10/18 11:50:40;;;;;;;12.20;5.95;;;16.10;88.00;;;;;;5010680;28;20460;-76
2021/10/18 11:53:17;;;;;;;9.20;5.50;;;16.10;88.10;;;;;;4994874;28;20101;-76
2021/10/18 11:55:51;;;;;;;14.15;6.35;;;16.10;88.00;;;;;;4995622;28;20026;-76
2021/10/18 11:58:22;;;;;;;9.40;5.78;;;16.10;87.80;;;;;;5009775;28;20062;-76
2021/10/18 12:01:01;;;;;;;11.93;6.47;;;16.20;87.80;;;;;;4995581;28;20015;-76
2021/10/18 12:03:27;;;;;;;9.23;5.10;;;16.20;87.60;;;;;;4994203;28;20030;-76
2021/10/18 12:05:56;;;;;;;13.73;7.13;;;16.10;87.70;;;;;;4994359;28;20027;-76
2021/10/18 12:08:27;;;;;;;13.70;6.75;;;16.10;87.60;;;;;;5010435;28;20018;-76
2021/10/18 12:10:52;;;;;;;;;;;16.10;87.90;;;;;;4995700;28;20109;-76
2021/10/18 12:13:23;;;;;;;9.10;5.45;;;16.00;87.30;;;;;;4994617;28;19988;-76
2021/10/18 12:16:00;;;;;;;11.48;5.85;;;16.00;87.30;;;;;;4995169;28;20041;-76
2021/10/18 12:18:47;;;;;;;12.00;6.45;;;16.00;87.30;;;;;;4993594;28;20064;-76
2021/10/18 12:21:35;;;;;;;11.80;6.30;;;16.10;87.20;;;;;;4994422;28;20032;-76
2021/10/18 12:24:12;;;;;;;12.50;6.10;;;16.10;87.10;;;;;;4994425;28;20452;-76
2021/10/18 12:26:44;;;;;;;8.98;5.75;;;16.10;87.10;;;;;;4995015;28;20022;-75
2021/10/18 12:29:12;;;;;;;10.80;6.22;;;16.00;86.90;;;;;;4994417;28;20049;-75
2021/10/18 12:31:47;;;;;;;10.65;4.82;;;16.00;87.00;;;;;;4994613;28;20382;-75
2021/10/18 12:34:13;;;;;;;11.13;5.90;;;16.00;87.10;;;;;;4993899;28;20046;-75
2021/10/18 12:36:50;;;;;;;10.77;5.97;;;16.00;87.10;;;;;;4993460;28;20038;-75
2021/10/18 12:39:49;;;;;;;12.18;6.32;;;16.00;86.90;;;;;;4994108;28;20023;-75
2021/10/18 12:42:35;;;;;;;12.25;6.70;;;15.90;86.80;;;;;;4992912;28;20030;-76
2021/10/18 12:45:09;;;;;;;9.93;5.05;;;15.90;86.80;;;;;;4993638;28;20022;-76
2021/10/18 12:47:37;;;;;;;10.48;5.50;;;15.90;86.80;;;;;;5009619;28;20054;-75
2021/10/18 12:50:03;;;;;;;10.07;5.47;;;15.90;86.80;;;;;;4993881;28;20431;-78
2021/10/18 12:52:39;;;;;;;12.80;6.63;;;15.90;86.60;;;;;;4994496;28;20057;-75
2021/10/18 12:55:18;;;;;;;9.85;6.18;;;15.90;86.30;;;;;;4993624;28;20035;-75
2021/10/18 12:57:51;;;;;;;9.32;5.00;;;15.90;86.30;;;;;;4994409;28;20049;-75
2021/10/18 13:00:20;;;;;;;9.95;4.93;;;15.90;86.20;;;;;;4993612;28;20033;-75
2021/10/18 13:02:48;;;;;;;8.65;4.53;;;15.90;86.20;;;;;;4994051;28;20018;-75
2021/10/18 13:05:21;;;;;;;9.15;5.47;;;15.90;86.20;;;;;;4992262;28;20072;-76
2021/10/18 13:07:54;;;;;;;10.00;4.30;;;15.90;86.10;;;;;;4994194;28;20484;-75
2021/10/18 13:10:21;;;;;;;9.73;5.40;;;15.90;86.10;;;;;;4992126;28;20030;-76
2021/10/18 13:12:48;;;;;;;10.63;5.35;;;15.90;86.00;;;;;;4993977;28;20073;-76
2021/10/18 13:15:15;;;;;;;9.10;4.80;;;16.00;86.00;;;;;;4993291;28;20106;-76
2021/10/18 13:17:42;;;;;;;8.60;4.90;;;16.00;85.90;;;;;;5009034;28;20037;-76
2021/10/18 13:20:09;;;;;;;11.80;6.53;;;16.00;85.80;;;;;;4993673;28;20101;-77
2021/10/18 13:22:36;;;;;;;10.75;6.10;;;16.00;85.50;;;;;;5008891;28;20034;-75
2021/10/18 13:25:04;;;;;;;10.65;5.03;;;16.00;85.50;;;;;;4992002;28;20069;-76
2021/10/18 13:27:31;;;;;;;10.77;4.85;;;16.00;85.50;;;;;;4993920;28;20018;-76
2021/10/18 13:29:57;;;;;;;10.07;5.28;;;16.10;85.60;;;;;;4993878;28;20431;-76
2021/10/18 13:32:23;;;;;;;10.48;5.78;;;16.10;85.50;;;;;;4993263;28;20414;-76
2021/10/18 13:34:48;;;;;;;10.40;5.47;;;16.10;85.40;;;;;;4993393;28;20050;-76
2021/10/18 13:37:14;;;;;;;7.32;4.50;;;16.20;85.40;;;;;;4993005;28;20384;-76
2021/10/18 13:39:41;;;;;;;8.63;4.85;;;16.20;85.20;;;;;;4993652;28;20053;-76
2021/10/18 13:42:08;;;;;;;11.93;6.07;;;16.20;85.20;;;;;;5007835;28;20022;-76
2021/10/18 13:44:35;;;;;;;8.45;4.70;;;16.20;85.00;;;;;;5008547;28;20108;-77
2021/10/18 13:47:01;;;;;;;9.38;5.25;;;16.30;85.00;;;;;;4993657;28;20102;-76
2021/10/18 13:49:27;;;;;;;10.57;5.10;;;16.30;85.00;;;;;;4993119;28;20113;-76